Time;durP1;ratioP1;P1;durP2;ratioP2;P2;SDS_P1;SDS_P2;PMS_P1;PMS_P2;Temp;Humidity;BMP_temperature;BMP_pressure;BME280_temperature;BME280_humidity;BME280_pressure;Samples;Min_cycle;Max_cycle;Signal;HPM_P1;HPM_P2
2022/12/19 00:01:20;;;;;;;25.75;3.78;;;10.50;99.90;;;;;;5060850;28;20044;-77
2022/12/19 00:03:49;;;;;;;25.30;4.00;;;10.60;99.90;;;;;;5063172;28;20071;-76
2022/12/19 00:06:16;;;;;;;18.92;4.03;;;10.50;99.90;;;;;;5047999;28;20017;-77
2022/12/19 00:08:43;;;;;;;25.95;6.70;;;10.60;99.90;;;;;;5062063;28;20036;-76
2022/12/19 00:11:11;;;;;;;23.30;3.70;;;10.60;99.90;;;;;;5059154;28;20060;-77
2022/12/19 00:13:37;;;;;;;20.65;4.25;;;10.60;99.90;;;;;;5064765;28;20047;-77
2022/12/19 00:16:06;;;;;;;28.13;5.18;;;10.60;99.90;;;;;;5070570;28;20046;-77
2022/12/19 00:18:31;;;;;;;21.92;4.15;;;10.60;99.90;;;;;;5063447;28;20086;-78
2022/12/19 00:21:02;;;;;;;22.33;4.35;;;10.70;99.90;;;;;;5070043;28;20036;-78
2022/12/19 00:23:30;;;;;;;27.13;5.30;;;10.70;99.90;;;;;;5064398;28;20020;-77
2022/12/19 00:26:10;;;;;;;25.35;5.50;;;10.70;99.90;;;;;;5058766;28;20028;-78
2022/12/19 00:28:35;;;;;;;24.50;4.28;;;10.60;99.90;;;;;;5057337;28;20037;-74
2022/12/19 00:31:02;;;;;;;25.50;5.78;;;10.60;99.90;;;;;;5061887;28;20086;-77
2022/12/19 00:33:28;;;;;;;26.65;6.32;;;10.60;99.90;;;;;;5064443;28;20020;-78
2022/12/19 00:36:02;;;;;;;31.02;5.38;;;10.60;99.90;;;;;;5058781;28;20087;-79
2022/12/19 00:38:28;;;;;;;25.83;4.78;;;10.60;99.90;;;;;;5059924;28;20056;-81
2022/12/19 00:40:54;;;;;;;34.28;4.65;;;10.60;99.90;;;;;;5066060;28;20427;-84
2022/12/19 00:43:20;;;;;;;19.73;4.70;;;10.70;99.90;;;;;;5062144;28;20049;-81
2022/12/19 00:45:45;;;;;;;18.92;4.20;;;10.70;99.90;;;;;;5072280;28;20020;-84
2022/12/19 00:48:11;;;;;;;31.65;4.90;;;10.80;99.90;;;;;;5065045;28;20036;-83
2022/12/19 00:50:37;;;;;;;19.10;4.15;;;10.80;99.90;;;;;;5053749;28;20033;-82
2022/12/19 00:53:05;;;;;;;36.38;4.82;;;10.80;99.90;;;;;;5060353;28;20032;-80
2022/12/19 00:55:31;;;;;;;23.70;4.18;;;10.80;99.90;;;;;;5059067;28;20032;-77
2022/12/19 00:57:56;;;;;;;27.42;4.65;;;10.80;99.90;;;;;;5066105;28;20047;-84
2022/12/19 01:00:22;;;;;;;21.98;6.07;;;10.80;99.90;;;;;;5062609;28;20043;-84
2022/12/19 01:02:48;;;;;;;24.20;4.65;;;10.90;99.90;;;;;;5068851;28;20033;-84
2022/12/19 01:05:13;;;;;;;39.30;5.18;;;10.80;99.90;;;;;;5073022;28;20024;-84
2022/12/19 01:07:39;;;;;;;19.48;4.28;;;10.90;99.90;;;;;;5068229;28;20093;-84
2022/12/19 01:10:05;;;;;;;31.42;5.22;;;10.90;99.90;;;;;;5070959;28;20043;-81
2022/12/19 01:12:46;;;;;;;17.23;3.67;;;10.90;99.90;;;;;;5066716;28;20074;-82
2022/12/19 01:15:14;;;;;;;23.92;6.75;;;10.90;99.90;;;;;;5068957;28;20078;-81
2022/12/19 01:17:40;;;;;;;24.75;4.90;;;10.90;99.90;;;;;;5061061;28;20058;-84
2022/12/19 01:20:06;;;;;;;27.38;4.43;;;10.90;99.90;;;;;;5073399;28;20083;-84
2022/12/19 01:22:32;;;;;;;25.50;5.43;;;10.80;99.90;;;;;;5053181;28;20028;-81
2022/12/19 01:24:58;;;;;;;21.23;5.30;;;10.80;99.90;;;;;;5054422;28;20029;-81
2022/12/19 01:27:24;;;;;;;22.73;4.78;;;10.90;99.90;;;;;;5048172;28;20049;-81
2022/12/19 01:29:49;;;;;;;21.27;4.97;;;10.90;99.90;;;;;;5060815;28;20029;-85
2022/12/19 01:32:15;;;;;;;24.33;5.47;;;10.90;99.90;;;;;;5064410;28;20052;-83
2022/12/19 01:34:41;;;;;;;32.03;5.72;;;10.90;99.90;;;;;;5069385;28;20021;-83
2022/12/19 01:37:06;;;;;;;23.83;5.55;;;10.90;99.90;;;;;;5060918;28;20051;-80
2022/12/19 01:39:32;;;;;;;26.33;4.55;;;10.90;99.90;;;;;;5060439;28;20077;-81
2022/12/19 01:41:58;;;;;;;30.65;4.72;;;10.90;99.90;;;;;;5056559;28;20075;-84
2022/12/19 01:44:24;;;;;;;20.75;4.63;;;10.90;99.90;;;;;;5051829;28;20037;-81
2022/12/19 01:46:56;;;;;;;28.67;4.57;;;10.90;99.90;;;;;;5063995;28;20071;-82
2022/12/19 01:49:32;;;;;;;36.50;6.53;;;10.90;99.90;;;;;;5069604;28;20028;-84
2022/12/19 01:52:01;;;;;;;23.30;5.22;;;11.00;99.90;;;;;;5072466;28;20116;-83
2022/12/19 01:54:33;;;;;;;22.30;5.13;;;11.00;99.90;;;;;;5059791;28;20032;-84
2022/12/19 01:57:01;;;;;;;28.85;4.63;;;10.90;99.90;;;;;;5055030;28;20033;-84
2022/12/19 01:59:46;;;;;;;30.35;6.03;;;11.00;99.90;;;;;;5067139;28;20043;-84
2022/12/19 02:02:30;;;;;;;26.17;6.43;;;10.90;99.90;;;;;;5067874;28;20115;-85
2022/12/19 02:04:55;;;;;;;25.52;5.20;;;11.00;99.90;;;;;;5066885;28;20113;-84
2022/12/19 02:07:24;;;;;;;23.88;5.20;;;10.90;99.90;;;;;;5064916;28;20564;-82
2022/12/19 02:09:53;;;;;;;27.35;4.25;;;10.90;99.90;;;;;;5071742;28;20111;-81
2022/12/19 02:12:20;;;;;;;29.33;4.53;;;10.90;99.90;;;;;;5062436;28;20118;-80
2022/12/19 02:14:46;;;;;;;21.65;4.82;;;10.90;99.90;;;;;;5065084;28;20021;-80
2022/12/19 02:17:20;;;;;;;23.02;4.97;;;10.90;99.90;;;;;;5054663;28;20021;-80
2022/12/19 02:20:21;;;;;;;20.45;4.22;;;10.90;99.90;;;;;;5067206;28;20355;-80
2022/12/19 02:22:59;;;;;;;17.23;4.00;;;10.90;99.90;;;;;;5048730;28;20086;-79
2022/12/19 02:25:40;;;;;;;22.10;3.50;;;10.90;99.90;;;;;;5060111;28;20024;-79
2022/12/19 02:28:26;;;;;;;22.45;4.30;;;10.90;99.90;;;;;;5069319;28;20108;-83
2022/12/19 02:31:04;;;;;;;21.90;4.93;;;10.80;99.90;;;;;;5067795;28;20052;-84
2022/12/19 02:33:49;;;;;;;20.60;4.95;;;10.80;99.90;;;;;;5052295;28;20507;-86
2022/12/19 02:36:40;;;;;;;29.48;5.57;;;10.80;99.90;;;;;;5071888;28;20154;-83
2022/12/19 02:39:17;;;;;;;31.15;4.60;;;10.80;99.90;;;;;;5058691;28;20028;-85
2022/12/19 02:41:56;;;;;;;20.05;5.35;;;10.80;99.90;;;;;;5042599;28;20033;-85
2022/12/19 02:44:34;;;;;;;21.50;4.35;;;10.80;99.90;;;;;;5056742;28;20040;-85
2022/12/19 02:47:03;;;;;;;28.73;4.43;;;10.90;99.90;;;;;;5066875;28;20056;-83
2022/12/19 02:49:29;;;;;;;21.40;4.82;;;11.00;99.90;;;;;;5072512;28;20063;-83
2022/12/19 02:51:55;;;;;;;26.70;4.13;;;10.90;99.90;;;;;;5078742;28;20024;-83
2022/12/19 02:54:21;;;;;;;22.05;4.35;;;11.00;99.90;;;;;;5073536;28;20025;-81
2022/12/19 02:57:00;;;;;;;26.92;4.57;;;11.00;99.90;;;;;;5062656;28;20380;-81
2022/12/19 02:59:42;;;;;;;30.27;6.47;;;11.00;99.90;;;;;;5079071;28;20038;-84
2022/12/19 03:02:16;;;;;;;22.80;4.17;;;10.90;99.90;;;;;;5059402;28;20472;-83
2022/12/19 03:05:14;;;;;;;25.30;5.22;;;10.90;99.90;;;;;;5058262;28;20028;-83
2022/12/19 03:07:46;;;;;;;23.52;4.72;;;10.90;99.90;;;;;;5061137;28;20048;-82
2022/12/19 03:10:17;;;;;;;30.67;5.00;;;10.90;99.90;;;;;;5075695;28;20036;-85
2022/12/19 03:13:08;;;;;;;20.40;5.07;;;10.90;99.90;;;;;;5074639;28;20032;-84
2022/12/19 03:15:35;;;;;;;26.02;4.60;;;10.90;99.90;;;;;;5032136;28;20120;-82
2022/12/19 03:18:01;;;;;;;31.08;4.82;;;10.90;99.90;;;;;;5029635;28;20123;-80
2022/12/19 03:20:38;;;;;;;36.35;5.15;;;11.00;99.90;;;;;;5030217;28;20413;-81
2022/12/19 03:23:05;;;;;;;22.10;4.32;;;11.00;99.90;;;;;;5031381;28;20037;-80
2022/12/19 03:25:32;;;;;;;19.75;5.10;;;11.00;99.90;;;;;;5029296;28;20540;-77
2022/12/19 03:28:03;;;;;;;28.17;4.60;;;11.10;99.90;;;;;;5018399;28;20556;-79
2022/12/19 03:30:30;;;;;;;18.63;4.07;;;11.10;99.90;;;;;;5024333;28;20050;-79
2022/12/19 03:32:56;;;;;;;14.38;3.97;;;11.20;99.90;;;;;;5022296;28;20547;-79
2022/12/19 03:35:27;;;;;;;22.85;5.18;;;11.20;99.90;;;;;;5027521;28;20035;-79
2022/12/19 03:38:00;;;;;;;17.77;3.47;;;11.20;99.90;;;;;;5027853;28;20103;-78
2022/12/19 03:40:27;;;;;;;14.27;3.72;;;11.20;99.90;;;;;;5012002;28;20046;-78
2022/12/19 03:43:08;;;;;;;24.27;4.22;;;11.30;99.90;;;;;;5020047;28;20041;-78
2022/12/19 03:45:56;;;;;;;26.40;5.15;;;11.30;99.90;;;;;;5022244;28;20025;-78
2022/12/19 03:48:28;;;;;;;17.55;4.93;;;11.20;99.90;;;;;;5026968;28;20042;-78
2022/12/19 03:51:01;;;;;;;;;;;11.30;99.90;;;;;;5026101;28;20049;-78
2022/12/19 03:53:42;;;;;;;16.75;3.45;;;11.30;99.90;;;;;;5060518;28;19915;-79
2022/12/19 03:56:11;;;;;;;18.33;3.88;;;11.30;99.90;;;;;;5069234;28;20036;-80
2022/12/19 03:58:41;;;;;;;25.58;4.60;;;11.30;99.90;;;;;;5063925;28;20029;-81
2022/12/19 04:01:08;;;;;;;21.80;4.30;;;11.20;99.90;;;;;;5074793;28;20112;-84
2022/12/19 04:03:34;;;;;;;18.30;3.72;;;11.20;99.90;;;;;;5060615;28;20032;-85
2022/12/19 04:06:01;;;;;;;21.52;5.78;;;11.20;99.90;;;;;;5073583;28;20388;-83
2022/12/19 04:08:29;;;;;;;24.83;4.28;;;11.20;99.90;;;;;;5054546;28;20037;-79
2022/12/19 04:11:02;;;;;;;22.05;4.75;;;11.20;99.90;;;;;;5065399;28;20104;-79
2022/12/19 04:13:47;;;;;;;20.50;4.40;;;11.20;99.90;;;;;;5062191;28;20045;-79
2022/12/19 04:16:22;;;;;;;24.05;4.13;;;11.20;99.90;;;;;;5048763;28;20107;-80
2022/12/19 04:18:57;;;;;;;24.00;4.43;;;11.10;99.90;;;;;;5058869;28;20029;-82
2022/12/19 04:21:30;;;;;;;20.85;4.53;;;11.10;99.90;;;;;;5065073;28;20047;-81
2022/12/19 04:24:03;;;;;;;26.40;5.03;;;11.10;99.90;;;;;;5066049;28;20036;-83
2022/12/19 04:26:31;;;;;;;21.88;4.20;;;11.10;99.90;;;;;;5063884;28;20033;-80
2022/12/19 04:29:00;;;;;;;37.00;4.88;;;11.10;99.90;;;;;;5071092;28;20025;-80
2022/12/19 04:31:26;;;;;;;21.65;4.55;;;11.10;99.90;;;;;;5062709;28;20020;-79
2022/12/19 04:33:51;;;;;;;24.40;4.80;;;11.10;99.90;;;;;;5068686;28;20028;-80
2022/12/19 04:36:17;;;;;;;22.35;4.95;;;11.10;99.90;;;;;;5062236;28;20029;-80
2022/12/19 04:38:43;;;;;;;18.45;4.95;;;11.10;99.90;;;;;;5066188;28;20051;-81
2022/12/19 04:41:08;;;;;;;24.17;5.13;;;11.10;99.90;;;;;;5065918;28;20021;-80
2022/12/19 04:43:34;;;;;;;24.98;5.05;;;11.10;99.90;;;;;;5054071;28;20072;-81
2022/12/19 04:46:00;;;;;;;23.30;4.05;;;11.10;99.90;;;;;;5063259;28;20055;-79
2022/12/19 04:48:25;;;;;;;27.33;4.32;;;11.10;99.90;;;;;;5065871;28;20496;-81
2022/12/19 04:50:51;;;;;;;19.65;4.78;;;11.10;99.90;;;;;;5067521;28;20100;-83
2022/12/19 04:53:17;;;;;;;25.02;3.97;;;11.10;99.90;;;;;;5065297;28;20488;-83
2022/12/19 04:55:43;;;;;;;20.83;4.95;;;11.10;99.90;;;;;;5045804;28;20036;-84
2022/12/19 04:58:08;;;;;;;20.38;5.00;;;11.20;99.90;;;;;;5071791;28;20005;-85
2022/12/19 05:00:34;;;;;;;22.25;5.30;;;11.20;99.90;;;;;;5038979;28;20033;-83
2022/12/19 05:03:00;;;;;;;25.13;4.35;;;11.20;99.90;;;;;;5065826;28;20053;-84
2022/12/19 05:05:26;;;;;;;22.02;4.90;;;11.20;99.90;;;;;;5066002;28;20021;-82
2022/12/19 05:07:51;;;;;;;22.52;4.60;;;11.20;99.90;;;;;;5063464;28;20043;-83
2022/12/19 05:10:17;;;;;;;24.33;5.90;;;11.10;99.90;;;;;;5071039;28;20028;-82
2022/12/19 05:12:43;;;;;;;24.42;5.28;;;11.20;99.90;;;;;;5070419;28;20036;-81
2022/12/19 05:15:09;;;;;;;29.02;5.35;;;11.20;99.90;;;;;;5069530;28;20020;-80
2022/12/19 05:17:35;;;;;;;15.13;4.03;;;11.20;99.90;;;;;;5065240;28;20063;-81
2022/12/19 05:20:00;;;;;;;16.30;3.88;;;11.20;99.90;;;;;;5062031;28;20029;-81
2022/12/19 05:22:26;;;;;;;24.75;5.53;;;11.30;99.90;;;;;;5062629;28;20089;-81
2022/12/19 05:24:52;;;;;;;27.65;4.80;;;11.30;99.90;;;;;;5067793;28;20025;-80
2022/12/19 05:27:17;;;;;;;22.77;4.35;;;11.30;99.90;;;;;;5064219;28;20481;-80
2022/12/19 05:29:43;;;;;;;20.17;3.65;;;11.40;99.90;;;;;;5061047;28;20028;-79
2022/12/19 05:32:09;;;;;;;25.95;4.15;;;11.40;99.90;;;;;;5067141;28;20060;-79
2022/12/19 05:34:34;;;;;;;20.92;4.63;;;11.40;99.90;;;;;;5065579;28;20028;-78
2022/12/19 05:37:02;;;;;;;23.65;3.90;;;11.40;99.90;;;;;;5075685;28;20500;-80
2022/12/19 05:39:28;;;;;;;21.08;5.30;;;11.40;99.90;;;;;;5065652;28;20032;-81
2022/12/19 05:41:53;;;;;;;20.33;4.18;;;11.40;99.90;;;;;;5081973;28;20037;-73
2022/12/19 05:44:19;;;;;;;20.75;3.67;;;11.40;99.90;;;;;;5101443;28;20047;-78
2022/12/19 05:46:45;;;;;;;16.00;3.80;;;11.40;99.90;;;;;;5102588;28;20032;-78
2022/12/19 05:49:11;;;;;;;14.43;3.58;;;11.50;99.90;;;;;;5108218;28;20028;-78
2022/12/19 05:51:36;;;;;;;23.90;3.88;;;11.50;99.90;;;;;;5091715;28;20833;-78
2022/12/19 05:54:02;;;;;;;17.98;4.30;;;11.50;99.90;;;;;;5094405;28;20036;-78
2022/12/19 05:56:29;;;;;;;24.20;5.18;;;11.50;99.90;;;;;;5073806;28;20098;-78
2022/12/19 05:58:55;;;;;;;22.25;3.72;;;11.50;99.90;;;;;;5090518;28;20035;-77
2022/12/19 06:01:24;;;;;;;17.02;4.00;;;11.50;99.90;;;;;;5090308;28;20048;-77
2022/12/19 06:03:50;;;;;;;19.20;3.28;;;11.40;99.90;;;;;;5091748;28;20099;-75
2022/12/19 06:06:19;;;;;;;20.48;3.97;;;11.50;99.90;;;;;;5093896;28;20081;-77
2022/12/19 06:08:46;;;;;;;27.30;3.70;;;11.40;99.90;;;;;;5075759;28;20064;-79
2022/12/19 06:11:13;;;;;;;18.33;4.60;;;11.40;99.90;;;;;;5087090;28;20085;-78
2022/12/19 06:13:39;;;;;;;18.63;3.47;;;11.50;99.90;;;;;;5091315;28;20024;-78
2022/12/19 06:16:09;;;;;;;21.55;4.25;;;11.50;99.90;;;;;;5094407;28;20028;-78
2022/12/19 06:18:34;;;;;;;17.73;4.32;;;11.50;99.90;;;;;;5082318;28;20161;-77
2022/12/19 06:21:03;;;;;;;22.48;3.55;;;11.60;99.90;;;;;;5092357;28;20066;-76
2022/12/19 06:23:30;;;;;;;16.23;4.93;;;11.60;99.90;;;;;;5087022;28;20466;-77
2022/12/19 06:25:57;;;;;;;23.08;4.15;;;11.60;99.90;;;;;;5087269;28;20036;-77
2022/12/19 06:28:24;;;;;;;21.63;4.95;;;11.60;99.90;;;;;;5090667;28;20484;-77
2022/12/19 06:30:49;;;;;;;26.42;3.83;;;11.60;99.90;;;;;;5088218;28;20097;-78
2022/12/19 06:33:15;;;;;;;16.67;3.88;;;11.60;99.90;;;;;;5087002;28;20070;-77
2022/12/19 06:35:41;;;;;;;18.77;4.70;;;11.60;99.90;;;;;;5083408;28;20039;-77
2022/12/19 06:38:07;;;;;;;26.52;5.20;;;11.60;99.90;;;;;;5086734;28;20528;-78
2022/12/19 06:43:17;;;;;;;20.15;3.75;;;11.60;99.90;;;;;;5073048;28;20071;-76
2022/12/19 06:45:42;;;;;;;26.95;3.53;;;11.60;99.90;;;;;;5063484;28;20055;-77
2022/12/19 06:48:08;;;;;;;15.82;3.38;;;11.60;99.90;;;;;;5070119;28;20115;-77
2022/12/19 06:50:34;;;;;;;15.07;3.53;;;11.70;99.90;;;;;;5067995;28;20029;-78
2022/12/19 06:53:00;;;;;;;19.23;4.25;;;11.60;99.90;;;;;;5067057;28;20028;-78
2022/12/19 06:55:26;;;;;;;21.77;4.85;;;11.60;99.90;;;;;;5067878;28;20392;-77
2022/12/19 06:57:51;;;;;;;24.23;3.97;;;11.60;99.90;;;;;;5063954;28;20112;-79
2022/12/19 07:00:17;;;;;;;24.13;3.85;;;11.50;99.90;;;;;;5070542;28;20029;-77
2022/12/19 07:02:47;;;;;;;20.27;4.60;;;11.40;99.90;;;;;;5065071;28;20040;-80
2022/12/19 07:05:13;;;;;;;15.55;4.60;;;11.50;99.90;;;;;;5135845;22;20116;-78
2022/12/19 07:07:40;;;;;;;17.73;3.88;;;11.40;99.90;;;;;;5110032;28;20543;-76
2022/12/19 07:10:07;;;;;;;12.98;3.67;;;11.50;99.90;;;;;;5111664;28;20035;-78
2022/12/19 07:13:10;;;;;;;13.75;3.40;;;11.40;99.90;;;;;;5108220;28;20038;-77
2022/12/19 07:18:46;;;;;;;16.38;4.72;;;11.40;99.90;;;;;;5027620;28;20490;-80
2022/12/19 07:21:12;;;;;;;22.33;4.13;;;11.30;99.90;;;;;;5011149;28;20030;-78
2022/12/19 07:23:38;;;;;;;21.73;5.18;;;11.20;99.90;;;;;;5008339;28;20041;-80
2022/12/19 07:26:04;;;;;;;19.17;4.35;;;11.20;99.90;;;;;;5001219;28;20018;-77
2022/12/19 07:28:32;;;;;;;27.33;5.95;;;11.10;99.90;;;;;;5008280;28;20518;-79
2022/12/19 07:30:58;;;;;;;24.88;4.38;;;11.20;99.90;;;;;;5009910;28;20018;-79
2022/12/19 07:33:23;;;;;;;25.20;4.18;;;11.20;99.90;;;;;;5007576;28;20045;-80
2022/12/19 07:35:49;;;;;;;20.58;4.97;;;11.10;99.90;;;;;;5008267;28;20588;-84
2022/12/19 07:38:14;;;;;;;13.95;3.83;;;11.20;99.90;;;;;;5025932;28;20033;-84
2022/12/19 07:40:40;;;;;;;22.23;3.78;;;11.20;99.90;;;;;;5019695;28;20057;-83
2022/12/19 07:43:06;;;;;;;20.27;4.10;;;11.20;99.90;;;;;;5023485;28;20034;-84
2022/12/19 07:45:33;;;;;;;22.33;4.75;;;11.20;99.90;;;;;;5003178;28;20034;-83
2022/12/19 07:48:03;;;;;;;27.15;4.70;;;11.10;99.90;;;;;;5025779;27;20041;-85
2022/12/19 07:50:29;;;;;;;24.75;5.68;;;11.10;99.90;;;;;;5107869;28;20498;-83
2022/12/19 07:52:56;;;;;;;21.25;4.32;;;11.10;99.90;;;;;;5112978;27;20491;-80
2022/12/19 07:55:21;;;;;;;30.05;5.15;;;11.10;99.90;;;;;;5115689;27;20048;-84
2022/12/19 07:57:47;;;;;;;22.40;3.88;;;11.10;99.90;;;;;;5122409;27;20040;-85
2022/12/19 08:00:13;;;;;;;24.42;5.20;;;11.10;99.90;;;;;;5110662;27;20079;-82
2022/12/19 08:02:39;;;;;;;21.77;4.47;;;11.20;99.90;;;;;;5090200;28;20032;-80
2022/12/19 08:05:05;;;;;;;18.02;3.70;;;11.20;99.90;;;;;;5102538;27;20044;-83
2022/12/19 08:07:31;;;;;;;23.70;4.28;;;11.20;99.90;;;;;;5092741;28;20042;-85
2022/12/19 08:09:56;;;;;;;16.00;3.85;;;11.20;99.90;;;;;;5101610;27;20028;-83
2022/12/19 08:12:22;;;;;;;37.97;4.95;;;11.20;99.90;;;;;;5108129;27;20036;-83
2022/12/19 08:14:48;;;;;;;22.33;3.85;;;11.20;99.90;;;;;;5106011;27;20559;-85
2022/12/19 08:17:14;;;;;;;18.15;3.58;;;11.30;99.90;;;;;;5112611;28;20016;-83
2022/12/19 08:19:39;;;;;;;19.80;3.72;;;11.30;99.90;;;;;;5114814;27;20447;-84
2022/12/19 08:22:05;;;;;;;24.20;4.00;;;11.30;99.90;;;;;;5094376;28;20054;-83
2022/12/19 08:24:31;;;;;;;20.58;4.38;;;11.30;99.90;;;;;;5113207;28;20098;-83
2022/12/19 08:26:56;;;;;;;22.52;5.68;;;11.30;99.90;;;;;;5114277;27;20043;-79
2022/12/19 08:29:22;;;;;;;19.92;4.13;;;11.30;99.90;;;;;;5090550;28;20066;-82
2022/12/19 08:31:48;;;;;;;22.33;4.18;;;11.30;99.90;;;;;;5108389;28;20026;-81
2022/12/19 08:34:14;;;;;;;15.43;3.55;;;11.40;99.90;;;;;;5103419;28;20050;-81
2022/12/19 08:36:39;;;;;;;27.73;4.93;;;11.40;99.90;;;;;;5110580;28;20021;-82
2022/12/19 08:39:05;;;;;;;12.43;3.40;;;11.50;99.90;;;;;;5123827;27;20027;-81
2022/12/19 08:41:31;;;;;;;20.42;5.50;;;11.50;99.90;;;;;;5108224;27;20107;-83
2022/12/19 08:43:56;;;;;;;26.27;5.30;;;11.60;99.90;;;;;;5115345;28;20066;-83
2022/12/19 08:46:22;;;;;;;16.55;3.05;;;11.60;99.90;;;;;;5112766;28;20093;-85
2022/12/19 08:48:48;;;;;;;20.10;3.90;;;11.50;99.90;;;;;;5116247;28;20032;-82
2022/12/19 08:51:15;;;;;;;15.23;3.20;;;11.50;99.90;;;;;;5120786;27;20101;-81
2022/12/19 08:53:42;;;;;;;16.13;4.07;;;11.60;99.90;;;;;;5107449;28;20028;-82
2022/12/19 08:56:11;;;;;;;18.25;3.15;;;11.50;99.90;;;;;;5114805;27;20169;-80
2022/12/19 08:58:37;;;;;;;14.45;3.50;;;11.50;99.90;;;;;;5113301;28;20031;-84
2022/12/19 09:01:09;;;;;;;25.52;4.65;;;11.40;99.90;;;;;;5110488;28;20032;-82
2022/12/19 09:03:35;;;;;;;17.08;3.50;;;11.40;99.90;;;;;;5110039;27;20489;-83
2022/12/19 09:06:04;;;;;;;18.77;3.35;;;11.40;99.90;;;;;;5114390;28;20020;-80
2022/12/19 09:08:30;;;;;;;18.90;3.60;;;11.50;99.90;;;;;;5095513;28;20042;-79
2022/12/19 09:11:01;;;;;;;14.95;3.50;;;11.40;99.90;;;;;;5110048;27;20026;-77
2022/12/19 09:13:27;;;;;;;19.08;3.95;;;11.40;99.90;;;;;;5103633;28;20023;-78
2022/12/19 09:16:26;;;;;;;16.25;4.57;;;11.40;99.90;;;;;;5103370;28;20471;-77
2022/12/19 09:18:55;;;;;;;21.38;3.97;;;11.40;99.90;;;;;;5055215;28;20449;-76
2022/12/19 09:21:22;;;;;;;29.58;4.20;;;11.40;99.90;;;;;;5105066;28;20024;-76
2022/12/19 09:23:51;;;;;;;28.88;3.72;;;11.40;99.90;;;;;;5100602;28;20032;-75
2022/12/19 09:26:17;;;;;;;19.08;4.65;;;11.30;99.90;;;;;;5106722;27;20427;-76
2022/12/19 09:28:44;;;;;;;37.10;5.15;;;11.40;99.90;;;;;;5109958;27;20188;-76
2022/12/19 09:31:16;;;;;;;20.98;3.55;;;11.40;99.90;;;;;;5113489;27;20039;-77
2022/12/19 09:33:42;;;;;;;17.75;4.03;;;11.30;99.90;;;;;;5110594;27;20040;-77
2022/12/19 09:36:11;;;;;;;23.92;4.90;;;11.30;99.90;;;;;;5112178;27;20035;-77
2022/12/19 09:38:37;;;;;;;656.35;253.93;;;11.30;99.90;;;;;;5103197;28;20760;-78
2022/12/19 09:41:35;;;;;;;33.15;8.50;;;11.30;99.90;;;;;;5109236;27;20064;-82
2022/12/19 09:44:37;;;;;;;28.15;5.60;;;11.30;99.90;;;;;;5010886;28;20064;-77
2022/12/19 09:47:23;;;;;;;;;;;11.30;99.90;;;;;;5009253;28;20038;-77
2022/12/19 09:49:50;;;;;;;26.60;4.20;;;11.30;99.90;;;;;;5010250;28;19914;-78
2022/12/19 09:52:31;;;;;;;24.15;4.55;;;11.20;99.90;;;;;;5013021;28;20053;-77
2022/12/19 09:55:19;;;;;;;24.88;4.95;;;11.20;99.90;;;;;;5007805;28;20113;-77
2022/12/19 09:58:06;;;;;;;24.85;3.78;;;11.20;99.90;;;;;;5019454;28;20026;-79
2022/12/19 10:00:41;;;;;;;32.05;3.83;;;11.20;99.90;;;;;;5011415;28;20037;-79
2022/12/19 10:03:19;;;;;;;21.48;3.70;;;11.20;99.90;;;;;;5010678;28;20113;-79
2022/12/19 10:05:53;;;;;;;21.75;5.28;;;11.20;99.90;;;;;;4991270;28;20100;-76
2022/12/19 10:08:34;;;;;;;20.48;4.07;;;11.20;99.90;;;;;;4990836;28;20075;-77
2022/12/19 10:11:07;;;;;;;26.83;4.45;;;11.20;99.90;;;;;;4990724;28;20180;-77
2022/12/19 10:13:39;;;;;;;31.67;10.60;;;11.10;99.90;;;;;;4987616;28;20478;-78
2022/12/19 10:16:18;;;;;;;16.23;4.73;;;11.10;99.90;;;;;;4990529;28;20030;-80
2022/12/19 10:18:58;;;;;;;29.88;10.48;;;11.10;99.90;;;;;;5012559;28;20268;-80
2022/12/19 10:21:33;;;;;;;17.92;4.15;;;11.10;99.90;;;;;;5073725;28;20027;-79
2022/12/19 10:24:06;;;;;;;22.25;3.75;;;11.20;99.90;;;;;;5074481;28;20012;-79
2022/12/19 10:26:51;;;;;;;27.45;5.18;;;11.10;99.90;;;;;;5089364;28;20028;-80
2022/12/19 10:29:31;;;;;;;17.40;5.10;;;11.10;99.90;;;;;;5067744;28;20021;-78
2022/12/19 10:32:31;;;;;;;22.65;5.35;;;11.10;99.90;;;;;;5073107;28;20036;-79
2022/12/19 10:34:57;;;;;;;18.00;3.30;;;11.10;99.90;;;;;;5066346;28;20036;-77
2022/12/19 10:37:25;;;;;;;28.45;4.65;;;11.10;99.90;;;;;;5063978;28;20024;-76
2022/12/19 10:39:59;;;;;;;20.83;3.80;;;11.10;99.90;;;;;;5064467;28;20043;-77
2022/12/19 10:42:43;;;;;;;18.45;4.72;;;11.10;99.90;;;;;;5065531;28;20112;-75
2022/12/19 10:45:15;;;;;;;24.65;5.72;;;11.10;99.90;;;;;;5068489;28;20033;-76
2022/12/19 10:47:41;;;;;;;20.33;4.20;;;11.10;99.90;;;;;;5062677;28;20040;-75
2022/12/19 10:50:12;;;;;;;18.95;3.85;;;11.10;99.90;;;;;;5064035;28;20036;-76
2022/12/19 10:52:51;;;;;;;22.17;5.90;;;11.10;99.90;;;;;;5061332;28;20029;-77
2022/12/19 10:55:41;;;;;;;23.13;6.25;;;11.10;99.90;;;;;;5064295;28;20081;-75
2022/12/19 10:58:34;;;;;;;25.63;6.00;;;11.10;99.90;;;;;;5069873;28;20492;-81
2022/12/19 11:01:05;;;;;;;25.75;4.57;;;11.20;99.90;;;;;;5060183;28;20049;-78
2022/12/19 11:03:33;;;;;;;25.95;6.85;;;11.20;99.90;;;;;;5074730;28;20033;-81
2022/12/19 11:05:59;;;;;;;25.83;4.78;;;11.20;99.90;;;;;;5111326;27;20050;-78
2022/12/19 11:08:36;;;;;;;26.98;4.70;;;11.10;99.90;;;;;;5119725;27;20499;-78
2022/12/19 11:11:04;;;;;;;69.70;27.13;;;11.20;99.90;;;;;;5088147;28;20365;-78
2022/12/19 11:13:33;;;;;;;23.77;5.85;;;11.20;99.90;;;;;;5093174;28;20032;-81
2022/12/19 11:16:03;;;;;;;26.10;4.72;;;11.20;99.90;;;;;;5106733;28;20024;-79
2022/12/19 11:18:42;;;;;;;35.20;6.25;;;11.20;99.90;;;;;;5098412;28;20421;-81
2022/12/19 11:21:20;;;;;;;29.23;5.43;;;11.30;99.90;;;;;;5109632;28;20015;-81
2022/12/19 11:23:50;;;;;;;29.85;5.55;;;11.30;99.90;;;;;;5105520;27;20027;-81
2022/12/19 11:26:39;;;;;;;23.70;4.68;;;11.30;99.90;;;;;;5106806;28;20020;-82
2022/12/19 11:29:41;;;;;;;21.05;3.90;;;11.30;99.90;;;;;;5096117;28;20044;-82
2022/12/19 11:32:24;;;;;;;22.23;4.10;;;11.30;99.90;;;;;;5096081;27;20110;-83
2022/12/19 11:34:50;;;;;;;18.60;3.55;;;11.30;99.90;;;;;;5115612;27;20332;-84
2022/12/19 11:37:26;;;;;;;24.90;4.00;;;11.30;99.90;;;;;;5112676;27;20027;-79
2022/12/19 11:39:59;;;;;;;17.08;3.92;;;11.30;99.90;;;;;;5105577;28;20035;-79
2022/12/19 11:42:31;;;;;;;13.65;4.55;;;11.30;99.90;;;;;;5103880;28;20028;-82
2022/12/19 11:45:10;;;;;;;17.52;3.78;;;11.30;99.90;;;;;;5103244;28;20475;-83
2022/12/19 11:47:42;;;;;;;26.58;4.35;;;11.30;99.90;;;;;;5098593;28;20039;-81
2022/12/19 11:50:22;;;;;;;16.75;4.30;;;11.30;99.90;;;;;;5110878;28;20027;-81
2022/12/19 11:53:12;;;;;;;27.95;4.70;;;11.30;99.90;;;;;;5113656;27;20059;-80
2022/12/19 11:55:50;;;;;;;21.83;4.93;;;11.40;99.90;;;;;;5106089;28;20039;-82
2022/12/19 11:58:16;;;;;;;11.63;3.45;;;11.30;99.90;;;;;;5112124;27;20418;-79
2022/12/19 12:00:56;;;;;;;18.60;4.30;;;11.40;99.90;;;;;;5101542;28;20118;-76
2022/12/19 12:03:41;;;;;;;27.00;4.32;;;11.40;99.90;;;;;;5085157;27;20027;-77
2022/12/19 12:06:13;;;;;;;17.10;4.03;;;11.40;99.90;;;;;;5101242;27;20131;-82
2022/12/19 12:09:25;;;;;;;19.92;3.78;;;11.40;99.90;;;;;;5105490;27;20115;-79
2022/12/19 12:12:02;;;;;;;27.90;3.20;;;11.40;99.90;;;;;;5041791;28;20037;-82
2022/12/19 12:14:54;;;;;;;22.70;3.78;;;11.50;99.90;;;;;;5040402;28;20386;-81
2022/12/19 12:17:34;;;;;;;23.92;4.05;;;11.50;99.90;;;;;;5041088;28;20043;-82
2022/12/19 12:20:25;;;;;;;16.17;3.65;;;11.50;99.90;;;;;;5044544;28;20033;-76
2022/12/19 12:23:22;;;;;;;14.07;2.80;;;11.60;99.90;;;;;;5041025;28;20072;-77
2022/12/19 12:26:24;;;;;;;21.83;4.03;;;11.60;99.90;;;;;;5042910;28;20025;-71
2022/12/19 12:29:13;;;;;;;23.35;5.10;;;11.60;99.90;;;;;;5041128;28;20045;-75
2022/12/19 12:31:59;;;;;;;35.75;11.75;;;11.70;99.90;;;;;;5045671;28;20097;-75
2022/12/19 12:34:31;;;;;;;16.30;3.80;;;11.70;99.90;;;;;;5041687;28;20548;-72
2022/12/19 12:37:21;;;;;;;23.98;6.47;;;11.70;99.90;;;;;;5041294;28;20029;-75
2022/12/19 12:39:59;;;;;;;19.33;3.58;;;11.80;99.90;;;;;;5040947;28;20051;-73
2022/12/19 12:42:37;;;;;;;18.80;3.83;;;11.90;99.90;;;;;;5025718;28;20052;-75
2022/12/19 12:45:18;;;;;;;21.35;2.97;;;11.90;99.90;;;;;;5038118;28;20071;-72
2022/12/19 12:47:48;;;;;;;14.98;3.63;;;11.90;99.90;;;;;;5076156;28;20050;-73
2022/12/19 12:50:17;;;;;;;13.27;3.30;;;11.90;99.90;;;;;;5109206;27;20011;-72
2022/12/19 12:52:49;;;;;;;16.25;3.00;;;11.90;99.90;;;;;;5103208;28;20043;-74
2022/12/19 12:55:15;;;;;;;;;;;12.10;99.90;;;;;;5103533;28;20085;-73
2022/12/19 12:57:40;;;;;;;14.35;2.78;;;12.00;99.90;;;;;;5095010;28;19911;-73
2022/12/19 13:00:24;;;;;;;12.77;3.95;;;12.00;99.90;;;;;;5106418;27;20098;-75
2022/12/19 13:03:17;;;;;;;25.17;3.58;;;12.00;99.90;;;;;;5102274;28;20032;-73
2022/12/19 13:05:45;;;;;;;13.20;3.33;;;12.10;99.90;;;;;;5100118;28;20042;-73